EREK1: Neosho River near Erie

                                SHEF ID:       EREK1     NEOSHO R NR ERIE, KS
STATION TYPE:

PRECIP STAGE RIV-FLOW BAT-LOAD
in ft cfs volt
Ccp-Rev Ccp-Rev Ccp-Rev Ccp-Rev
(America/Chicago)
02/22 00:00 ---- 15.09 4620 12.32
02/22 01:00 ---- 15.09 4620 12.28
02/22 02:00 ---- 15.09 4620 12.25
02/22 03:00 ---- 15.11 4650 12.21
02/22 04:00 ---- 15.09 4620 12.18
02/22 05:00 ---- 15.08 4600 12.16
02/22 06:00 ---- 15.09 4620 12.15
02/22 07:00 ---- 15.09 4620 12.14
02/22 08:00 ---- 15.03 4530 12.14
02/22 09:00 ---- 15.00 4490 12.36
02/22 10:00 ---- 15.02 4520 13.57
02/22 11:00 ---- 15.00 4490 13.70
02/22 12:00 ---- 15.02 4520 13.65
02/22 13:00 ---- 15.00 4490 13.65
02/22 14:00 ---- 14.98 4460 13.65
02/22 15:00 ---- 14.99 4480 13.65
02/22 16:00 ---- 14.99 4480 13.65
02/22 17:00 ---- 15.00 4490 13.65
02/22 18:00 ---- 15.05 4560 13.64
02/22 19:00 ---- 15.04 4550 13.16
02/22 20:00 ---- 15.04 4550 12.60
02/22 21:00 ---- 15.04 4550 12.42
02/22 22:00 ---- 15.04 4550 12.36
02/22 23:00 ---- 15.02 4520 12.32
Data processed at Mon 23Feb2026 05:23 GMT

NOTICE: If you are parsing this page

Please convert to using our Data API. Starting early 2026 we will be migrating to: https://water.usace.army.mil with modern pages rendered in JavaScript. When this migration completes you will no longer be able to scrape this page! CWMSDataAPI (CDA)

Timeseries IDs (TSIDs)

TSIDs used from left to right in the data table
ERIE.Precip-Inc.Total.1Hour.1Hour.Ccp-Rev
ERIE.Stage.Inst.1Hour.0.Ccp-Rev
ERIE.Flow.Inst.1Hour.0.Ccp-Rev
ERIE.Volt-Battery Load.Inst.1Hour.0.Ccp-Rev

                            

All information presented herein is the property of the government of the United States of America and may be revised or deleted at any time without prior notice. Dissemination of this information without the expressed written consent of the Public Affairs Office, Tulsa District U.S. Army Corps of Engineers is strictly prohibited. These data are gathered electronically and, as presented, have NOT undergone any form of quality control. These data are NOT guaranteed to be valid or correct.